Extreme low temperature From: 25-02-2018 16:00 Until: 26-02-2018 16:00 warning for: Extreme low temperature Level: Yellow info button

Although rather usual in this region, locally or potentially dangerous phenomena are expected. (such as local winds, summer thunderstorms, rising streams or high waves) Be aware and pay attention to the latest weather updates, especially if you carry out activities exposed to weather or close to a stream or shoreline. 


Meteo18 Weather Cam more information Meteo18 Weather Cam


Thunder radar more information blitzortung!


Rain radar more information rain snow radar


Visit our other weather sites:

Template documentation
and downloads

And another site



Weather Underground History page Text

Daily Summary for February 1, 2018 Units:  Metric    English   Both
« Previous Day
Next Day »
Daily Weekly Monthly Yearly Custom
  High: Low: Average:
Temperature: -17.8 °C -17.5 °C -15.9 °C
Dew Point: -17.8 °C -17.9 °C -16.7 °C
Humidity: Humidity % 78 % 90 %
Wind Speed: 0 km/h 0 km/h 9.2 km/h
Wind Gust: 0 km/h - -
Wind:- - WSW
Pressure: 0 hPa 34086.9 hPa -
Precipitation: 45.72 mm    
Historical Graphs
 
 
Tabular Data for February 1, 2018
Time Temperature Dew Point Pressure Wind Wind Speed Wind Gust Humidity Rainfall Rate (Hourly)
-17.8 °C -17.8 °C 0 hPa Calm     Humidity % 0 mm
00:05 -15 °C -15.6 °C 34144.4 hPa WSW 7.6 km/h 18.2 km/h 93 % 12.7 mm
00:11 -15 °C -15.6 °C 34144.4 hPa WSW 12.7 km/h 20.8 km/h 93 % 20.32 mm
00:17 -15 °C -15.6 °C 34144.4 hPa SW 10.3 km/h 12.9 km/h 93 % 12.7 mm
00:23 -14.9 °C -15.5 °C 34144.4 hPa WSW 10.3 km/h 23.3 km/h 93 % 20.32 mm
00:29 -14.9 °C -15.5 °C 34144.4 hPa West 15.6 km/h 25.9 km/h 93 % 12.7 mm
00:35 -14.9 °C -15.5 °C 34144.4 hPa WSW 12.7 km/h 18.2 km/h 93 % 20.32 mm
00:41 -14.9 °C -15.5 °C 34144.4 hPa West 7.6 km/h 20.8 km/h 93 % 20.32 mm
00:47 -14.9 °C -15.5 °C 34144.4 hPa West 12.7 km/h 20.8 km/h 93 % 25.4 mm
00:53 -15 °C -15.6 °C 34144.4 hPa West 7.6 km/h 25.9 km/h 93 % 25.4 mm
00:59 -14.9 °C -15.7 °C 34144.4 hPa WNW 15.6 km/h 23.3 km/h 91 % 25.4 mm
01:06 -14.9 °C -15.8 °C 34144.4 hPa West 28.5 km/h 36.2 km/h 90 % 25.4 mm
01:11 -14.9 °C -15.9 °C 34144.4 hPa West 23 km/h 28.5 km/h 89 % 25.4 mm
01:18 -15 °C -15.9 °C 34144.4 hPa West 17.9 km/h 23.3 km/h 89 % 25.4 mm
01:24 -15.1 °C -15.9 °C 34144.4 hPa West 15.6 km/h 28.5 km/h 90 % 20.32 mm
01:30 -15.1 °C -15.9 °C 34144.4 hPa WNW 12.7 km/h 20.8 km/h 90 % 25.4 mm
01:36 -15.1 °C -15.8 °C 34130.9 hPa West 2.3 km/h 12.9 km/h 91 % 20.32 mm
01:42 -15.2 °C -15.9 °C 34144.4 hPa WSW 12.7 km/h 18.2 km/h 91 % 20.32 mm
01:48 -15.2 °C -15.9 °C 34144.4 hPa West 5.1 km/h 10.3 km/h 91 % 12.7 mm
01:54 -15.2 °C -15.9 °C 34144.4 hPa WSW 7.6 km/h 18.2 km/h 92 % 12.7 mm
02:00 -15.2 °C -15.9 °C 34144.4 hPa WNW 12.7 km/h 15.6 km/h 91 % 12.7 mm
02:06 -15.2 °C -16.1 °C 34144.4 hPa West 12.7 km/h 18.2 km/h 90 % 12.7 mm
02:12 -15.2 °C -16.1 °C 34144.4 hPa West 7.6 km/h 12.9 km/h 90 % 12.7 mm
02:18 -15.3 °C -16.1 °C 34144.4 hPa WNW 17.9 km/h 25.9 km/h 90 % 12.7 mm
02:24 -15.3 °C -16.1 °C 34130.9 hPa West 23 km/h 23.3 km/h 90 % 12.7 mm
02:30 -15.3 °C -16.3 °C 34130.9 hPa WNW 12.7 km/h 20.8 km/h 89 % 7.62 mm
02:36 -15.3 °C -16.3 °C 34130.9 hPa WNW 12.7 km/h 18.2 km/h 89 % 7.62 mm
02:42 -15.4 °C -16.2 °C 34130.9 hPa WNW 7.6 km/h 10.3 km/h 90 % 0 mm
02:48 -15.4 °C -16.2 °C 34130.9 hPa WNW 5.1 km/h 10.3 km/h 90 % 0 mm
02:54 -15.4 °C -16.3 °C 34130.9 hPa West 7.6 km/h 15.6 km/h 90 % 0 mm
03:00 -15.5 °C -16.2 °C 34130.9 hPa West 7.6 km/h 15.6 km/h 91 % 0 mm
03:06 -15.6 °C -16.3 °C 34130.9 hPa West 7.6 km/h 15.6 km/h 91 % 0 mm
03:12 -15.6 °C -16.3 °C 34130.9 hPa West 12.7 km/h 15.6 km/h 91 % 0 mm
03:18 -15.7 °C -16.4 °C 34130.9 hPa West 7.6 km/h 12.9 km/h 91 % 0 mm
03:24 -15.7 °C -16.4 °C 34130.9 hPa West 7.6 km/h 12.9 km/h 91 % 0 mm
03:30 -15.7 °C -16.3 °C 34130.9 hPa West 2.3 km/h 10.3 km/h 92 % 0 mm
03:36 -15.7 °C -16.4 °C 34130.9 hPa WNW 7.6 km/h 10.3 km/h 92 % 0 mm
03:42 -15.7 °C -16.4 °C 34130.9 hPa West 7.6 km/h 15.6 km/h 92 % 0 mm
03:48 -15.7 °C -16.4 °C 34130.9 hPa West 10.3 km/h 12.9 km/h 92 % 0 mm
03:54 -15.7 °C -16.4 °C 34120.7 hPa West 15.6 km/h 18.2 km/h 91 % 0 mm
04:00 -15.7 °C -16.4 °C 34120.7 hPa West 10.3 km/h 20.8 km/h 91 % 0 mm
04:06 -15.7 °C -16.4 °C 34120.7 hPa WSW 10.3 km/h 15.6 km/h 91 % 0 mm
04:12 -15.8 °C -16.4 °C 34120.7 hPa WSW 7.6 km/h 20.8 km/h 92 % 0 mm
04:18 -15.8 °C -16.4 °C 34120.7 hPa WSW 5.1 km/h 10.3 km/h 92 % 0 mm
04:24 -15.9 °C -16.6 °C 34107.2 hPa West 7.6 km/h 7.7 km/h 92 % 0 mm
04:30 -15.9 °C -16.5 °C 34107.2 hPa WSW 5.1 km/h 7.7 km/h 93 % 0 mm
04:36 -15.9 °C -16.5 °C 34107.2 hPa SW 5.1 km/h 10.3 km/h 93 % 0 mm
04:42 -15.9 °C -16.4 °C 34107.2 hPa SW 7.6 km/h 15.6 km/h 94 % 0 mm
04:48 -15.9 °C -16.4 °C 34107.2 hPa SW 5.1 km/h 18.2 km/h 94 % 0 mm
04:54 -15.9 °C -16.4 °C 34120.7 hPa WSW 10.3 km/h 15.6 km/h 94 % 0 mm
05:00 -15.8 °C -16.3 °C 34120.7 hPa SW 5.1 km/h 7.7 km/h 94 % 0 mm
05:06 -15.8 °C -16.3 °C 34120.7 hPa SSW 7.6 km/h 10.3 km/h 94 % 0 mm
05:12 -15.7 °C -16.2 °C 34120.7 hPa WSW 7.6 km/h 15.6 km/h 94 % 0 mm
05:18 -15.7 °C -16.2 °C 34120.7 hPa West 12.7 km/h 18.2 km/h 93 % 0 mm
05:24 -15.6 °C -16.3 °C 34120.7 hPa West 12.7 km/h 15.6 km/h 92 % 0 mm
05:30 -15.6 °C -16.3 °C 34120.7 hPa West 12.7 km/h 20.8 km/h 92 % 0 mm
05:36 -15.7 °C -16.3 °C 34120.7 hPa West 7.6 km/h 15.6 km/h 92 % 0 mm
05:42 -15.7 °C -16.4 °C 34120.7 hPa SW 17.9 km/h 18.2 km/h 91 % 0 mm
05:48 -15.7 °C -16.4 °C 34107.2 hPa WSW 10.3 km/h 15.6 km/h 91 % 0 mm
05:54 -15.8 °C -16.5 °C 34107.2 hPa West 12.7 km/h 25.9 km/h 91 % 0 mm
06:00 -15.8 °C -16.5 °C 34107.2 hPa West 10.3 km/h 20.8 km/h 91 % 0 mm
06:06 -15.8 °C -16.6 °C 34107.2 hPa SW 15.6 km/h 23.3 km/h 91 % 0 mm
06:12 -15.9 °C -16.6 °C 34107.2 hPa WSW 20.9 km/h 25.9 km/h 92 % 0 mm
06:18 -15.9 °C -16.6 °C 34107.2 hPa WSW 12.7 km/h 23.3 km/h 92 % 0 mm
06:24 -15.9 °C -16.6 °C 34107.2 hPa WSW 7.6 km/h 12.9 km/h 92 % 0 mm
06:30 -15.9 °C -16.6 °C 34097 hPa SW 15.6 km/h 23.3 km/h 92 % 0 mm
06:36 -15.9 °C -16.5 °C 34097 hPa WSW 10.3 km/h 25.9 km/h 93 % 0 mm
06:42 -16 °C -16.6 °C 34097 hPa West 12.7 km/h 23.3 km/h 93 % 0 mm
06:48 -16 °C -16.5 °C 34097 hPa WSW 10.3 km/h 25.9 km/h 94 % 0 mm
06:54 -16 °C -16.5 °C 34097 hPa SSW 12.7 km/h 20.8 km/h 94 % 0 mm
07:00 -16.1 °C -16.6 °C 34097 hPa WSW 12.7 km/h 28.5 km/h 94 % 0 mm
07:06 -16.1 °C -16.6 °C 34097 hPa SW 17.9 km/h 31.1 km/h 94 % 0 mm
07:12 -16.2 °C -16.7 °C 34086.9 hPa SW 20.9 km/h 33.6 km/h 94 % 0 mm
07:18 -16.2 °C -16.7 °C 34086.9 hPa SW 17.9 km/h 25.9 km/h 94 % 0 mm
07:24 -16.3 °C -16.8 °C 34086.9 hPa SW 10.3 km/h 20.8 km/h 94 % 0 mm
07:30 -16.3 °C -16.8 °C 34086.9 hPa SW 10.3 km/h 20.8 km/h 94 % 0 mm
07:36 -16.4 °C -16.9 °C 34086.9 hPa WSW 5.1 km/h 12.9 km/h 94 % 0 mm
07:42 -16.4 °C -16.8 °C 34086.9 hPa SW 2.3 km/h 18.2 km/h 95 % 0 mm
07:48 -16.5 °C -16.9 °C 34097 hPa SW 10.3 km/h 12.9 km/h 95 % 0 mm
07:54 -16.5 °C -16.9 °C 34086.9 hPa SSW 12.7 km/h 23.3 km/h 95 % 0 mm
08:00 -16.6 °C -16.9 °C 34086.9 hPa SW 15.6 km/h 20.8 km/h 95 % 0 mm
08:06 -16.6 °C -16.9 °C 34097 hPa WSW 20.9 km/h 25.9 km/h 95 % 0 mm
08:12 -16.6 °C -16.9 °C 34097 hPa WSW 12.7 km/h 31.1 km/h 95 % 0 mm
08:18 -16.5 °C -16.9 °C 34097 hPa WSW 20.9 km/h 28.5 km/h 95 % 0 mm
08:25 -16.5 °C -17 °C 34097 hPa SW 20.9 km/h 31.1 km/h 94 % 0 mm
08:31 -16.4 °C -16.9 °C 34107.2 hPa SW 10.3 km/h 28.5 km/h 94 % 0 mm
08:37 -16.4 °C -16.9 °C 34107.2 hPa WSW 10.3 km/h 18.2 km/h 94 % 0 mm
08:43 -16.4 °C -16.9 °C 34107.2 hPa WSW 20.9 km/h 23.3 km/h 94 % 0 mm
08:49 -16.4 °C -16.9 °C 34107.2 hPa WSW 20.9 km/h 20.9 km/h 94 % 0 mm
08:55 -16.4 °C -16.9 °C 34097 hPa SW 12.7 km/h 23.3 km/h 94 % 0 mm
09:01 -16.4 °C -16.9 °C 34097 hPa WSW 5.1 km/h 20.8 km/h 94 % 0 mm
09:09 -16.4 °C -16.9 °C 34107.2 hPa West 12.7 km/h 28.5 km/h 94 % 0 mm
09:17 -16.3 °C -16.8 °C 34107.2 hPa WNW 7.6 km/h 23.3 km/h 94 % 0 mm
09:23 -16.3 °C -16.8 °C 34107.2 hPa WSW 15.6 km/h 20.8 km/h 94 % 0 mm
09:29 -16.3 °C -16.8 °C 34107.2 hPa WSW 7.6 km/h 20.8 km/h 94 % 0 mm
09:35 -16.3 °C -16.8 °C 34097 hPa WSW 10.3 km/h 31.1 km/h 94 % 0 mm
09:41 -16.2 °C -16.7 °C 34097 hPa WSW 17.9 km/h 23.3 km/h 94 % 0 mm
09:47 -16.2 °C -16.7 °C 34097 hPa SW 7.6 km/h 20.8 km/h 94 % 0 mm
09:53 -16.2 °C -16.7 °C 34097 hPa WSW 10.3 km/h 18.2 km/h 94 % 0 mm
09:59 -16.2 °C -16.7 °C 34097 hPa WSW 12.7 km/h 31.1 km/h 93 % 0 mm
10:05 -16.1 °C -16.7 °C 34097 hPa WSW 10.3 km/h 25.9 km/h 93 % 0 mm
10:11 -16.1 °C -16.6 °C 34097 hPa SW 20.9 km/h 31.1 km/h 93 % 0 mm
10:17 -16 °C -16.6 °C 34097 hPa WSW 10.3 km/h 15.6 km/h 93 % 0 mm
10:23 -16 °C -16.7 °C 34097 hPa SW 7.6 km/h 28.5 km/h 92 % 0 mm
10:29 -15.9 °C -16.6 °C 34097 hPa West 15.6 km/h 28.5 km/h 92 % 0 mm
10:35 -15.9 °C -16.6 °C 34097 hPa WSW 7.6 km/h 20.8 km/h 92 % 0 mm
10:41 -15.9 °C -16.6 °C 34097 hPa West 31.4 km/h 33.6 km/h 92 % 0 mm
10:47 -15.9 °C -16.6 °C 34107.2 hPa WSW 17.9 km/h 18.2 km/h 92 % 0 mm
10:53 -15.9 °C -16.6 °C 34097 hPa WSW 15.6 km/h 23.3 km/h 92 % 0 mm
10:59 -15.9 °C -16.4 °C 34107.2 hPa West 17.9 km/h 23.3 km/h 93 % 0 mm
11:05 -15.8 °C -16.4 °C 34107.2 hPa WSW 12.7 km/h 15.6 km/h 93 % 0 mm
11:11 -15.8 °C -16.5 °C 34107.2 hPa WSW 15.6 km/h 28.5 km/h 92 % 0 mm
11:17 -15.8 °C -16.4 °C 34107.2 hPa West 20.9 km/h 25.9 km/h 92 % 0 mm
11:23 -15.8 °C -16.4 °C 34107.2 hPa West 12.7 km/h 15.6 km/h 92 % 0 mm
11:29 -15.7 °C -16.4 °C 34107.2 hPa West 23 km/h 38.8 km/h 91 % 0 mm
11:35 -15.8 °C -16.5 °C 34107.2 hPa WNW 17.9 km/h 23.3 km/h 91 % 0 mm
11:41 -15.8 °C -16.4 °C 34107.2 hPa WSW 15.6 km/h 23.3 km/h 92 % 0 mm
11:47 -15.8 °C -16.4 °C 34107.2 hPa WSW 10.3 km/h 31.1 km/h 92 % 0 mm
11:53 -15.8 °C -16.4 °C 34107.2 hPa WSW 15.6 km/h 23.3 km/h 92 % 0 mm
11:59 -15.7 °C -16.4 °C 34107.2 hPa WSW 17.9 km/h 28.5 km/h 92 % 0 mm
12:05 -15.7 °C -16.4 °C 34107.2 hPa WNW 12.7 km/h 23.3 km/h 92 % 0 mm
12:11 -15.7 °C -16.4 °C 34107.2 hPa WSW 15.6 km/h 18.2 km/h 92 % 0 mm
12:17 -15.7 °C -16.4 °C 34107.2 hPa WSW 7.6 km/h 25.9 km/h 91 % 0 mm
12:23 -15.6 °C -16.3 °C 34107.2 hPa WSW 15.6 km/h 18.2 km/h 91 % 0 mm
12:29 -15.7 °C -16.5 °C 34107.2 hPa WNW 26.2 km/h 28.5 km/h 90 % 0 mm
12:35 -15.7 °C -16.5 °C 34107.2 hPa West 5.1 km/h 28.5 km/h 90 % 0 mm
12:41 -15.7 °C -16.5 °C 34107.2 hPa WNW 10.3 km/h 23.3 km/h 90 % 0 mm
12:47 -15.7 °C -16.5 °C 34107.2 hPa WNW 5.1 km/h 23.3 km/h 90 % 0 mm
12:53 -15.7 °C -16.5 °C 34097 hPa WSW 10.3 km/h 23.3 km/h 90 % 0 mm
12:59 -15.6 °C -16.4 °C 34097 hPa WSW 12.7 km/h 20.8 km/h 90 % 0 mm
13:05 -15.6 °C -16.4 °C 34097 hPa West 7.6 km/h 23.3 km/h 90 % 0 mm
13:11 -15.6 °C -16.4 °C 34097 hPa West 23 km/h 25.9 km/h 90 % 0 mm
13:17 -15.6 °C -16.4 °C 34097 hPa WNW 12.7 km/h 38.8 km/h 90 % 0 mm
13:23 -15.6 °C -16.4 °C 34097 hPa NW 15.6 km/h 33.6 km/h 90 % 0 mm
13:29 -15.7 °C -16.4 °C 34097 hPa WNW 10.3 km/h 28.5 km/h 91 % 0 mm
13:35 -15.7 °C -16.4 °C 34097 hPa WNW 7.6 km/h 25.9 km/h 91 % 7.62 mm
13:41 -15.7 °C -16.3 °C 34097 hPa WNW 20.9 km/h 23.3 km/h 92 % 7.62 mm
13:47 -15.6 °C -16.4 °C 34097 hPa WNW 7.6 km/h 23.3 km/h 90 % 7.62 mm
13:53 -15.5 °C -16.2 °C 34097 hPa West 23 km/h 25.9 km/h 91 % 7.62 mm
13:59 -15.5 °C -16.3 °C 34097 hPa WNW 15.6 km/h 25.9 km/h 90 % 7.62 mm
14:05 -15.4 °C -16.3 °C 34097 hPa WNW 20.9 km/h 25.9 km/h 90 % 7.62 mm
14:11 -15.4 °C -16.4 °C 34097 hPa WNW 12.7 km/h 20.8 km/h 89 % 7.62 mm
14:17 -15.5 °C -16.4 °C 34097 hPa WNW 12.7 km/h 18.2 km/h 89 % 7.62 mm
14:23 -15.4 °C -16.4 °C 34097 hPa NW 5.1 km/h 12.9 km/h 89 % 7.62 mm
14:29 -15.4 °C -16.4 °C 34097 hPa WNW 5.1 km/h 15.6 km/h 88 % 7.62 mm
14:35 -15.4 °C -16.4 °C 34097 hPa NW 2.3 km/h 18.2 km/h 88 % 0 mm
14:41 -15.4 °C -16.4 °C 34097 hPa WNW 2.3 km/h 5.1 km/h 88 % 0 mm
14:47 -15.4 °C -16.5 °C 34097 hPa West 5.1 km/h 12.9 km/h 87 % 0 mm
14:53 -15.4 °C -16.5 °C 34107.2 hPa WNW 2.3 km/h 7.7 km/h 87 % 0 mm
14:59 -15.3 °C -16.4 °C 34107.2 hPa West 7.6 km/h 7.7 km/h 87 % 0 mm
15:05 -15.3 °C -16.4 °C 34107.2 hPa West 2.3 km/h 10.3 km/h 87 % 0 mm
15:11 -15.2 °C -16.5 °C 34097 hPa WNW 17.9 km/h 23.3 km/h 85 % 0 mm
15:17 -15.2 °C -16.4 °C 34107.2 hPa WNW 2.3 km/h 10.3 km/h 85 % 0 mm
15:23 -15.2 °C -16.6 °C 34107.2 hPa WNW 5.1 km/h 18.2 km/h 84 % 0 mm
15:29 -15.1 °C -16.4 °C 34107.2 hPa WNW 12.7 km/h 12.9 km/h 85 % 0 mm
15:35 -15.1 °C -16.6 °C 34107.2 hPa WNW 7.6 km/h 18.2 km/h 82 % 0 mm
15:41 -15.1 °C -16.6 °C 34097 hPa WNW 5.1 km/h 18.2 km/h 82 % 0 mm
15:47 -15.1 °C -16.6 °C 34097 hPa West 2.3 km/h 15.6 km/h 83 % 0 mm
15:53 -15.1 °C -16.4 °C 34097 hPa WNW 5.1 km/h 7.7 km/h 84 % 0 mm
15:59 -14.9 °C -16.5 °C 34097 hPa West 5.1 km/h 7.7 km/h 82 % 0 mm
16:05 -14.9 °C -16.6 °C 34097 hPa WNW 12.7 km/h 12.9 km/h 81 % 0 mm
16:11 -15.1 °C -16.7 °C 34097 hPa West 7.6 km/h 7.7 km/h 81 % 0 mm
16:17 -15.1 °C -16.8 °C 34097 hPa WSW 2.3 km/h 7.7 km/h 81 % 0 mm
16:23 -14.9 °C -16.5 °C 34097 hPa WSW 10.3 km/h 10.3 km/h 82 % 0 mm
16:29 -14.9 °C -16.7 °C 34097 hPa WSW 5.1 km/h 7.7 km/h 80 % 0 mm
16:35 -14.8 °C -16.6 °C 34097 hPa West 5.1 km/h 7.7 km/h 79 % 0 mm
16:41 -14.7 °C -16.7 °C 34097 hPa West 5.1 km/h 7.7 km/h 78 % 0 mm
16:47 -14.7 °C -16.6 °C 34097 hPa WSW 7.6 km/h 12.9 km/h 79 % 0 mm
16:53 -14.8 °C -16.6 °C 34097 hPa West 2.3 km/h 10.3 km/h 80 % 0 mm
16:59 -14.8 °C -16.6 °C 34097 hPa West 10.3 km/h 12.9 km/h 80 % 0 mm
17:05 -14.9 °C -16.6 °C 34097 hPa West 7.6 km/h 10.3 km/h 81 % 0 mm
17:11 -15 °C -16.6 °C 34097 hPa West 2.3 km/h 10.3 km/h 82 % 0 mm
17:17 -15.1 °C -16.7 °C 34107.2 hPa West 7.6 km/h 12.9 km/h 81 % 0 mm
17:24 -15.1 °C -16.7 °C 34107.2 hPa WSW 5.1 km/h 10.3 km/h 82 % 0 mm
17:30 -15.1 °C -16.7 °C 34107.2 hPa Calm   2.6 km/h 82 % 0 mm
17:36 -15.2 °C -16.8 °C 34107.2 hPa SW 2.3 km/h 2.6 km/h 82 % 0 mm
17:42 -15.2 °C -16.7 °C 34107.2 hPa Calm   2.6 km/h 83 % 0 mm
17:48 -15.4 °C -16.8 °C 34107.2 hPa Calm   2.6 km/h 83 % 0 mm
17:54 -15.5 °C -16.9 °C 34120.7 hPa SW 2.3 km/h 2.6 km/h 84 % 0 mm
18:00 -15.6 °C -16.9 °C 34120.7 hPa WSW 2.3 km/h 7.7 km/h 85 % 0 mm
18:06 -15.7 °C -16.8 °C 34120.7 hPa WSW 2.3 km/h 2.6 km/h 86 % 0 mm
18:12 -15.7 °C -16.8 °C 34120.7 hPa SW 7.6 km/h 10.3 km/h 86 % 0 mm
18:18 -15.7 °C -16.8 °C 34130.9 hPa SW 7.6 km/h 10.3 km/h 86 % 0 mm
18:24 -15.7 °C -16.8 °C 34130.9 hPa SW 2.3 km/h 5.1 km/h 86 % 0 mm
18:30 -15.8 °C -16.9 °C 34130.9 hPa SW 5.1 km/h 7.7 km/h 86 % 0 mm
18:36 -15.8 °C -16.9 °C 34130.9 hPa SW 2.3 km/h 7.7 km/h 86 % 0 mm
18:42 -15.8 °C -16.9 °C 34120.7 hPa SW 7.6 km/h 12.9 km/h 87 % 0 mm
18:48 -15.9 °C -16.9 °C 34130.9 hPa WSW 2.3 km/h 7.7 km/h 88 % 0 mm
18:54 -15.9 °C -16.9 °C 34130.9 hPa West 2.3 km/h 5.1 km/h 88 % 0 mm
19:00 -16.1 °C -17.1 °C 34130.9 hPa WSW 5.1 km/h 7.7 km/h 88 % 0 mm
19:06 -16.2 °C -17.1 °C 34130.9 hPa WSW 2.3 km/h 2.6 km/h 89 % 0 mm
19:12 -16.2 °C -17.1 °C 34144.4 hPa SW 5.1 km/h 7.7 km/h 90 % 0 mm
19:18 -16.2 °C -16.9 °C 34144.4 hPa SSW 2.3 km/h 5.1 km/h 91 % 0 mm
19:24 -16.3 °C -17.2 °C 34144.4 hPa Calm   2.6 km/h 90 % 0 mm
19:30 -16.6 °C -17.4 °C 34144.4 hPa SSW 2.3 km/h 2.6 km/h 90 % 0 mm
19:36 -16.6 °C -17.2 °C 34144.4 hPa SSW 2.3 km/h 5.1 km/h 92 % 0 mm
19:42 -16.6 °C -17.1 °C 34144.4 hPa SW 2.3 km/h 5.1 km/h 93 % 0 mm
19:48 -16.6 °C -17.1 °C 34144.4 hPa SW 2.3 km/h 5.1 km/h 93 % 0 mm
19:54 -16.5 °C -17.1 °C 34154.6 hPa SW 2.3 km/h 10.3 km/h 93 % 0 mm
20:00 -16.5 °C -17.1 °C 34154.6 hPa SW 2.3 km/h 7.7 km/h 93 % 0 mm
20:06 -16.5 °C -17.1 °C 34154.6 hPa WSW 5.1 km/h 7.7 km/h 93 % 0 mm
20:12 -16.5 °C -17.1 °C 34154.6 hPa West 7.6 km/h 12.9 km/h 93 % 0 mm
20:18 -16.4 °C -17.1 °C 34154.6 hPa West 12.7 km/h 15.6 km/h 92 % 0 mm
20:24 -16.4 °C -17.1 °C 34164.7 hPa WSW 5.1 km/h 12.9 km/h 92 % 0 mm
20:30 -16.4 °C -17.1 °C 34164.7 hPa West 5.1 km/h 12.9 km/h 92 % 0 mm
20:36 -16.4 °C -17.1 °C 34164.7 hPa WNW 12.7 km/h 12.9 km/h 92 % 0 mm
20:42 -16.3 °C -17 °C 34164.7 hPa West 2.3 km/h 10.3 km/h 92 % 0 mm
20:48 -16.3 °C -17 °C 34164.7 hPa West 5.1 km/h 12.9 km/h 92 % 0 mm
20:54 -16.3 °C -17.1 °C 34164.7 hPa WNW 7.6 km/h 15.6 km/h 91 % 0 mm
21:00 -16.4 °C -17.1 °C 34164.7 hPa West 7.6 km/h 10.3 km/h 91 % 0 mm
21:06 -16.4 °C -17.1 °C 34164.7 hPa West 10.3 km/h 15.6 km/h 92 % 0 mm
21:12 -16.4 °C -17.1 °C 34164.7 hPa West 7.6 km/h 15.6 km/h 92 % 0 mm
21:18 -16.4 °C -17.1 °C 34164.7 hPa WNW 12.7 km/h 20.8 km/h 92 % 0 mm
21:24 -16.4 °C -17.1 °C 34164.7 hPa West 7.6 km/h 12.9 km/h 92 % 0 mm
21:30 -16.3 °C -17 °C 34164.7 hPa West 12.7 km/h 18.2 km/h 92 % 0 mm
21:36 -16.4 °C -17.1 °C 34164.7 hPa WNW 5.1 km/h 10.3 km/h 91 % 0 mm
21:42 -16.4 °C -17.2 °C 34164.7 hPa WNW 15.6 km/h 15.6 km/h 91 % 0 mm
21:48 -16.5 °C -17.2 °C 34164.7 hPa West 10.3 km/h 12.9 km/h 92 % 0 mm
21:54 -16.6 °C -17.2 °C 34164.7 hPa WNW 5.1 km/h 15.6 km/h 92 % 0 mm
22:00 -16.6 °C -17.2 °C 34164.7 hPa WNW 5.1 km/h 12.9 km/h 92 % 0 mm
22:06 -16.6 °C -17.3 °C 34164.7 hPa Calm   5.1 km/h 92 % 0 mm
22:12 -16.7 °C -17.4 °C 34164.7 hPa WNW 2.3 km/h 7.7 km/h 92 % 0 mm
22:18 -16.7 °C -17.3 °C 34164.7 hPa Calm   2.6 km/h 93 % 0 mm
22:24 -16.7 °C -17.3 °C 34178.3 hPa Calm   2.6 km/h 93 % 0 mm
22:30 -16.8 °C -17.5 °C 34164.7 hPa Calm     92 % 0 mm
22:36 -16.9 °C -17.5 °C 34178.3 hPa SE 2.3 km/h 2.6 km/h 93 % 0 mm
22:42 -17 °C -17.6 °C 34178.3 hPa SE 2.3 km/h 5.1 km/h 93 % 0 mm
22:48 -17.2 °C -17.7 °C 34178.3 hPa SSE 2.3 km/h 5.1 km/h 93 % 0 mm
22:54 -17.2 °C -17.7 °C 34178.3 hPa Calm     94 % 0 mm
23:00 -17.3 °C -17.8 °C 34178.3 hPa Calm     94 % 0 mm
23:07 -17.3 °C -17.8 °C 34178.3 hPa Calm     94 % 0 mm
23:13 -17.4 °C -17.8 °C 34178.3 hPa Calm     95 % 0 mm
23:19 -17.3 °C -17.7 °C 34178.3 hPa Calm     95 % 0 mm
23:25 -17.4 °C -17.8 °C 34178.3 hPa SE 2.3 km/h 2.6 km/h 95 % 0 mm
23:31 -17.4 °C -17.8 °C 34178.3 hPa Calm     95 % 0 mm
23:37 -17.4 °C -17.8 °C 34178.3 hPa Calm     95 % 0 mm
23:43 -17.4 °C -17.8 °C 34178.3 hPa Calm     95 % 0 mm
23:49 -17.5 °C -17.9 °C 34178.3 hPa Calm     95 % 0 mm
23:55 -17.4 °C -17.8 °C 34178.3 hPa Calm     96 % 0 mm
Meteo18
Compliments of Weather Underground - 4 mb

Script developed by  Jim McMurry - jmcmurry@mwt.net Adapted for the template by  Wim van der Kuil - Leuven-Template.eu

You find our weather info also at:

European Weather Network

Weather Underground

Equipment we use:

Weather-station
Davis Vue

Weather-program
Meteobridge

Weather-server
Raspberry PI 2 B+

Provider
1 and 1

Davis Vue

Meteobridge

Raspberry PI 2 B+

1 and 1